EGXW/WTN METAR and TAF weather

Enter ICAO airport designator
Station Type Date Time Source
EGXW METAR 2020/07/06 01:50 UTC NOAA

EGXW 060150Z AUTO 26010G20KT 9999 FEW027/// BKN060/// 12/08 Q1010 RERA


Station Type Date Time Source
EGXW Decoded METAR 2020/07/06 01:50 UTC NOAA

Waddington, United Kingdom (EGXW) 53-10N 000-31W 0M
Jul 05, 2020 - 09:50 PM EDT / 2020.07.06 0150 UTC
Wind: from the W (260 degrees) at 12 MPH (10 KT) gusting to 23 MPH (20 KT):0
Visibility: greater than 7 mile(s):0
Sky conditions: mostly cloudy
Temperature: 53 F (12 C)
Dew Point: 46 F (8 C)
Relative Humidity: 76%
Pressure (altimeter): 29.83 in. Hg (1010 hPa)
ob: EGXW 060150Z AUTO 26010G20KT 9999 FEW027/// BKN060/// 12/08 Q1010 RERA
cycle: 2

Station Type Date Time Source
EGXW TAF 2020/07/03 15:45 UTC NOAA

TAF TAF EGXW 031338Z 0315/0409 22016G26KT 9999 FEW020 BKN035
TEMPO 0315/0319 -RA SCT020
BECMG 0319/0322 BKN012
BECMG 0323/0401 22014KT PROB30
TEMPO 0400/0407 3000 -RADZ BKN006

Example: see airport list